createdAt,value
2017-05-22T00:00:24.212Z,0
2017-05-22T00:01:24.120Z,0
2017-05-22T00:02:24.440Z,0
2017-05-22T00:03:24.426Z,0
2017-05-22T00:04:24.115Z,0
2017-05-22T00:05:23.796Z,0
2017-05-22T00:06:23.786Z,0
2017-05-22T00:07:24.385Z,0
2017-05-22T00:08:24.085Z,0
2017-05-22T00:09:24.075Z,0
2017-05-22T00:10:24.074Z,0
2017-05-22T00:11:24.372Z,0
2017-05-22T00:12:24.357Z,0
2017-05-22T00:13:24.351Z,0
2017-05-22T00:14:24.046Z,0
2017-05-22T00:15:24.043Z,0
2017-05-22T00:16:24.311Z,0
2017-05-22T00:17:24.317Z,0
2017-05-22T00:18:24.000Z,0
2017-05-22T00:19:24.005Z,0
2017-05-22T00:20:23.994Z,0
2017-05-22T00:21:24.345Z,0
2017-05-22T00:22:24.278Z,0
2017-05-22T00:23:24.286Z,0
2017-05-22T00:24:24.278Z,0
2017-05-22T00:25:24.258Z,0
2017-05-22T00:26:23.969Z,0
2017-05-22T00:27:23.993Z,0
2017-05-22T00:28:24.250Z,0
2017-05-22T00:29:24.242Z,0
2017-05-22T00:30:23.922Z,0
2017-05-22T00:31:24.223Z,0
2017-05-22T00:32:24.216Z,0
2017-05-22T00:33:24.216Z,0
2017-05-22T00:34:24.194Z,0
2017-05-22T00:35:24.187Z,0
2017-05-22T00:36:24.168Z,0
2017-05-22T00:37:23.864Z,0
2017-05-22T00:38:24.177Z,0
2017-05-22T00:39:24.169Z,0
2017-05-22T00:40:24.162Z,0
2017-05-22T00:41:24.158Z,0
2017-05-22T00:42:24.135Z,0
2017-05-22T00:43:24.145Z,0
2017-05-22T00:44:24.127Z,0
2017-05-22T00:45:24.121Z,0
2017-05-22T00:46:23.805Z,0
2017-05-22T00:47:23.802Z,0
2017-05-22T00:48:23.813Z,0
2017-05-22T00:49:24.096Z,0
2017-05-22T00:50:23.781Z,0
2017-05-22T00:51:24.073Z,0
2017-05-22T00:52:24.060Z,0
2017-05-22T00:53:24.068Z,0
2017-05-22T00:54:23.748Z,0
2017-05-22T00:55:24.036Z,0
2017-05-22T00:56:24.044Z,0
2017-05-22T00:57:24.036Z,0
2017-05-22T00:58:24.044Z,0
2017-05-22T00:59:24.026Z,0
2017-05-22T01:00:23.702Z,0
2017-05-22T01:01:23.710Z,0
2017-05-22T01:02:23.683Z,0
2017-05-22T01:03:23.996Z,0
2017-05-22T01:04:23.986Z,0
2017-05-22T01:05:23.662Z,0
2017-05-22T01:06:23.663Z,0
2017-05-22T01:07:23.955Z,0
2017-05-22T01:08:23.950Z,0
2017-05-22T01:09:24.011Z,0
2017-05-22T01:10:23.928Z,0
2017-05-22T01:11:23.940Z,0
2017-05-22T01:12:23.914Z,0
2017-05-22T01:13:23.920Z,0
2017-05-22T01:14:23.600Z,0
2017-05-22T01:15:23.893Z,0
2017-05-22T01:16:23.899Z,0
2017-05-22T01:17:23.891Z,0
2017-05-22T01:18:23.887Z,0
2017-05-22T01:19:23.566Z,0
2017-05-22T01:20:23.879Z,0
2017-05-22T01:21:23.870Z,0
2017-05-22T01:22:23.839Z,0
2017-05-22T01:23:23.906Z,0
2017-05-22T01:24:23.848Z,0
2017-05-22T01:25:23.833Z,0
2017-05-22T01:26:23.824Z,0
2017-05-22T01:27:23.817Z,0
2017-05-22T01:28:23.821Z,0
2017-05-22T01:29:23.858Z,0
2017-05-22T01:30:23.493Z,0
2017-05-22T01:31:23.784Z,0
2017-05-22T01:32:23.794Z,0
2017-05-22T01:33:23.467Z,0
2017-05-22T01:34:23.756Z,0
2017-05-22T01:35:23.757Z,0
2017-05-22T01:36:23.744Z,0
2017-05-22T01:37:23.734Z,0
2017-05-22T01:38:23.739Z,0
2017-05-22T01:39:23.735Z,0
2017-05-22T01:40:23.410Z,0
2017-05-22T01:41:23.702Z,0
2017-05-22T01:42:23.704Z,0
2017-05-22T01:43:23.393Z,0
2017-05-22T01:44:23.380Z,0
2017-05-22T01:45:23.705Z,0
2017-05-22T01:46:23.381Z,0
2017-05-22T01:47:23.385Z,0
2017-05-22T01:48:23.681Z,0
2017-05-22T01:49:23.660Z,0
2017-05-22T01:50:23.904Z,0
2017-05-22T01:51:23.650Z,0
2017-05-22T01:52:23.646Z,0
2017-05-22T01:53:23.632Z,0
2017-05-22T01:54:23.633Z,0
2017-05-22T01:55:23.622Z,0
2017-05-22T01:56:23.605Z,0
2017-05-22T01:57:23.599Z,0
2017-05-22T01:58:23.588Z,0
2017-05-22T01:59:23.298Z,0
2017-05-22T02:00:23.574Z,0
2017-05-22T02:01:23.583Z,0
2017-05-22T02:02:23.569Z,0
2017-05-22T02:03:23.563Z,0
2017-05-22T02:04:23.571Z,0
2017-05-22T02:05:23.546Z,0
2017-05-22T02:06:23.529Z,0
2017-05-22T02:07:23.531Z,0
2017-05-22T02:08:23.534Z,0
2017-05-22T02:09:23.534Z,0
2017-05-22T02:10:23.511Z,0
2017-05-22T02:11:23.524Z,0
2017-05-22T02:12:23.484Z,0
2017-05-22T02:13:23.495Z,0
2017-05-22T02:14:23.491Z,0
2017-05-22T02:15:23.465Z,0
2017-05-22T02:16:23.459Z,0
2017-05-22T02:17:23.450Z,0
2017-05-22T02:18:23.454Z,0
2017-05-22T02:19:23.443Z,0
2017-05-22T02:20:23.434Z,0
2017-05-22T02:21:23.436Z,0
2017-05-22T02:22:23.417Z,0
2017-05-22T02:23:23.422Z,0
2017-05-22T02:24:23.405Z,0
2017-05-22T02:25:23.412Z,0
2017-05-22T02:26:23.453Z,0
2017-05-22T02:27:23.392Z,0
2017-05-22T02:28:23.370Z,0
2017-05-22T02:29:23.369Z,0
2017-05-22T02:30:23.448Z,0
2017-05-22T02:31:23.364Z,0
2017-05-22T02:32:23.358Z,0
2017-05-22T02:33:23.357Z,0
2017-05-22T02:34:23.047Z,0
2017-05-22T02:35:23.351Z,0
2017-05-22T02:36:22.717Z,0
2017-05-22T02:37:23.327Z,0
2017-05-22T02:38:23.005Z,0
2017-05-22T02:39:22.710Z,0
2017-05-22T02:40:23.316Z,0
2017-05-22T02:41:23.007Z,0
2017-05-22T02:42:22.984Z,0
2017-05-22T02:43:23.289Z,0
2017-05-22T02:44:23.284Z,0
2017-05-22T02:45:22.954Z,5
2017-05-22T02:46:23.265Z,5
2017-05-22T02:47:23.249Z,5
2017-05-22T02:48:23.239Z,5
2017-05-22T02:49:22.940Z,5
2017-05-22T02:50:22.932Z,5
2017-05-22T02:51:23.223Z,5
2017-05-22T02:52:23.210Z,5
2017-05-22T02:53:22.898Z,5
2017-05-22T02:54:23.205Z,5
2017-05-22T02:55:23.198Z,5
2017-05-22T02:56:23.191Z,5
2017-05-22T02:57:23.184Z,5
2017-05-22T02:58:23.194Z,10
2017-05-22T02:59:23.188Z,10
2017-05-22T03:00:22.869Z,10
2017-05-22T03:01:23.160Z,10
2017-05-22T03:02:23.161Z,10
2017-05-22T03:03:23.142Z,10
2017-05-22T03:04:22.829Z,10
2017-05-22T03:05:22.843Z,15
2017-05-22T03:06:22.827Z,15
2017-05-22T03:07:23.144Z,15
2017-05-22T03:08:23.099Z,15
2017-05-22T03:09:23.110Z,20
2017-05-22T03:10:23.089Z,20
2017-05-22T03:11:23.159Z,20
2017-05-22T03:12:23.089Z,25
2017-05-22T03:13:23.081Z,25
2017-05-22T03:14:23.065Z,30
2017-05-22T03:15:23.053Z,30
2017-05-22T03:16:23.057Z,30
2017-05-22T03:17:23.062Z,35
2017-05-22T03:18:23.049Z,35
2017-05-22T03:19:23.057Z,40
2017-05-22T03:20:23.030Z,40
2017-05-22T03:21:22.409Z,40
2017-05-22T03:22:23.022Z,45
2017-05-22T03:23:22.700Z,45
2017-05-22T03:24:22.987Z,45
2017-05-22T03:25:22.691Z,50
2017-05-22T03:26:22.689Z,50
2017-05-22T03:27:23.001Z,55
2017-05-22T03:28:22.976Z,55
2017-05-22T03:29:23.049Z,60
2017-05-22T03:30:22.967Z,65
2017-05-22T03:31:22.960Z,65
2017-05-22T03:32:22.651Z,70
2017-05-22T03:33:22.935Z,70
2017-05-22T03:34:22.611Z,75
2017-05-22T03:35:22.940Z,75
2017-05-22T03:36:22.908Z,80
2017-05-22T03:37:22.617Z,90
2017-05-22T03:38:22.913Z,100
2017-05-22T03:39:22.906Z,105
2017-05-22T03:40:22.885Z,100
2017-05-22T03:41:22.876Z,95
2017-05-22T03:42:22.582Z,95
2017-05-22T03:43:22.885Z,95
2017-05-22T03:44:22.572Z,95
2017-05-22T03:45:22.566Z,100
2017-05-22T03:46:22.869Z,100
2017-05-22T03:47:22.553Z,105
2017-05-22T03:48:22.233Z,110
2017-05-22T03:49:22.234Z,115
2017-05-22T03:50:22.525Z,125
2017-05-22T03:51:22.522Z,140
2017-05-22T03:52:22.209Z,150
2017-05-22T03:53:22.517Z,165
2017-05-22T03:54:22.813Z,185
2017-05-22T03:55:22.789Z,195
2017-05-22T03:56:22.850Z,185
2017-05-22T03:57:22.481Z,165
2017-05-22T03:58:22.486Z,150
2017-05-22T03:59:22.776Z,140
2017-05-22T04:00:22.781Z,135
2017-05-22T04:01:22.461Z,140
2017-05-22T04:02:22.792Z,140
2017-05-22T04:03:22.461Z,140
2017-05-22T04:04:22.443Z,145
2017-05-22T04:05:22.752Z,150
2017-05-22T04:06:22.745Z,155
2017-05-22T04:07:22.425Z,160
2017-05-22T04:08:22.444Z,165
2017-05-22T04:09:22.720Z,170
2017-05-22T04:10:22.731Z,175
2017-05-22T04:11:22.733Z,185
2017-05-22T04:12:22.707Z,190
2017-05-22T04:13:22.426Z,210
2017-05-22T04:14:22.695Z,210
2017-05-22T04:15:22.403Z,220
2017-05-22T04:16:22.690Z,230
2017-05-22T04:17:22.088Z,240
2017-05-22T04:18:22.371Z,255
2017-05-22T04:19:22.681Z,275
2017-05-22T04:20:22.696Z,295
2017-05-22T04:21:22.690Z,310
2017-05-22T04:22:22.690Z,310
2017-05-22T04:23:22.677Z,340
2017-05-22T04:24:22.672Z,375
2017-05-22T04:25:22.662Z,415
2017-05-22T04:26:22.654Z,440
2017-05-22T04:27:22.352Z,450
2017-05-22T04:28:22.345Z,455
2017-05-22T04:29:22.351Z,460
2017-05-22T04:30:22.653Z,475
2017-05-22T04:31:22.349Z,470
2017-05-22T04:32:22.357Z,470
2017-05-22T04:33:22.733Z,465
2017-05-22T04:34:22.701Z,460
2017-05-22T04:35:22.651Z,455
2017-05-22T04:36:22.340Z,455
2017-05-22T04:37:22.660Z,475
2017-05-22T04:38:22.656Z,480
2017-05-22T04:39:22.664Z,500
2017-05-22T04:40:22.653Z,520
2017-05-22T04:41:22.347Z,530
2017-05-22T04:42:22.658Z,535
2017-05-22T04:43:22.644Z,565
2017-05-22T04:44:22.360Z,580
2017-05-22T04:45:22.669Z,585
2017-05-22T04:46:22.659Z,595
2017-05-22T04:47:22.676Z,600
2017-05-22T04:48:22.648Z,620
2017-05-22T04:49:22.678Z,625
2017-05-22T04:50:22.671Z,635
2017-05-22T04:51:22.669Z,640
2017-05-22T04:52:22.686Z,610
2017-05-22T04:53:22.699Z,620
2017-05-22T04:54:22.709Z,635
2017-05-22T04:55:22.400Z,650
2017-05-22T04:56:22.094Z,650
2017-05-22T04:57:22.397Z,665
2017-05-22T04:58:22.121Z,680
2017-05-22T04:59:22.717Z,690
2017-05-22T05:00:22.416Z,715
2017-05-22T05:01:22.436Z,720
2017-05-22T05:02:22.760Z,685
2017-05-22T05:03:22.458Z,660
2017-05-22T05:04:22.454Z,655
2017-05-22T05:05:22.466Z,665
2017-05-22T05:06:22.484Z,630
2017-05-22T05:07:22.784Z,625
2017-05-22T05:08:22.496Z,700
2017-05-22T05:09:22.818Z,740
2017-05-22T05:10:22.819Z,765
2017-05-22T05:11:22.824Z,775
2017-05-22T05:12:22.831Z,765
2017-05-22T05:13:22.859Z,780
2017-05-22T05:14:22.856Z,825
2017-05-22T05:15:22.869Z,830
2017-05-22T05:16:22.880Z,805
2017-05-22T05:17:22.876Z,800
2017-05-22T05:18:22.882Z,800
2017-05-22T05:19:22.908Z,805
2017-05-22T05:20:22.895Z,815
2017-05-22T05:21:22.613Z,795
2017-05-22T05:22:22.925Z,785
2017-05-22T05:23:22.940Z,700
2017-05-22T05:24:22.954Z,710
2017-05-22T05:25:22.968Z,655
2017-05-22T05:26:22.968Z,635
2017-05-22T05:27:22.983Z,680
2017-05-22T05:28:22.989Z,750
2017-05-22T05:29:23.016Z,865
2017-05-22T05:30:23.007Z,795
2017-05-22T05:31:22.714Z,840
2017-05-22T05:32:23.050Z,785
2017-05-22T05:33:23.056Z,740
2017-05-22T05:34:23.046Z,865
2017-05-22T05:35:22.758Z,985
2017-05-22T05:36:23.081Z,890
2017-05-22T05:37:23.088Z,940
2017-05-22T05:38:23.100Z,1055
2017-05-22T05:39:23.101Z,1125
2017-05-22T05:40:23.107Z,1145
2017-05-22T05:41:23.134Z,1185
2017-05-22T05:42:23.143Z,1180
2017-05-22T05:43:23.135Z,1195
2017-05-22T05:44:23.165Z,1265
2017-05-22T05:45:22.878Z,1265
2017-05-22T05:46:23.168Z,1250
2017-05-22T05:47:23.202Z,1250
2017-05-22T05:48:23.196Z,1245
2017-05-22T05:49:22.925Z,1230
2017-05-22T05:50:23.235Z,1215
2017-05-22T05:51:23.252Z,1195
2017-05-22T05:52:23.255Z,1225
2017-05-22T05:53:22.961Z,1265
2017-05-22T05:54:23.284Z,1265
2017-05-22T05:55:23.289Z,1265
2017-05-22T05:56:23.315Z,1260
2017-05-22T05:57:23.007Z,1305
2017-05-22T05:58:23.022Z,1310
2017-05-22T05:59:23.354Z,1300
2017-05-22T06:00:23.338Z,1315
2017-05-22T06:01:23.377Z,1345
2017-05-22T06:02:23.371Z,1390
2017-05-22T06:03:23.111Z,1385
2017-05-22T06:04:23.420Z,1385
2017-05-22T06:05:23.122Z,1380
2017-05-22T06:06:23.131Z,1365
2017-05-22T06:07:23.458Z,1345
2017-05-22T06:08:23.473Z,1350
2017-05-22T06:09:23.488Z,1375
2017-05-22T06:10:23.194Z,1360
2017-05-22T06:11:23.518Z,1370
2017-05-22T06:12:23.215Z,1385
2017-05-22T06:13:23.237Z,1395
2017-05-22T06:14:23.541Z,1395
2017-05-22T06:15:23.583Z,1420
2017-05-22T06:16:23.618Z,1415
2017-05-22T06:17:23.292Z,1430
2017-05-22T06:18:23.640Z,1455
2017-05-22T06:19:23.341Z,1270
2017-05-22T06:20:23.658Z,1450
2017-05-22T06:21:23.657Z,1525
2017-05-22T06:22:23.674Z,1545
2017-05-22T06:23:23.719Z,1560
2017-05-22T06:24:23.728Z,1575
2017-05-22T06:25:23.741Z,1560
2017-05-22T06:26:23.751Z,1530
2017-05-22T06:27:23.771Z,1495
2017-05-22T06:28:23.480Z,1435
2017-05-22T06:29:23.811Z,1225
2017-05-22T06:30:23.517Z,1380
2017-05-22T06:31:23.831Z,1485
2017-05-22T06:32:23.835Z,1530
2017-05-22T06:33:23.914Z,1560
2017-05-22T06:34:23.876Z,1600
2017-05-22T06:35:23.896Z,1670
2017-05-22T06:36:23.913Z,1695
2017-05-22T06:37:23.908Z,1700
2017-05-22T06:38:23.650Z,1705
2017-05-22T06:39:23.965Z,1720
2017-05-22T06:40:23.671Z,1730
2017-05-22T06:41:24.003Z,1720
2017-05-22T06:42:23.720Z,1720
2017-05-22T06:43:23.727Z,1720
2017-05-22T06:44:24.056Z,1715
2017-05-22T06:45:23.763Z,1725
2017-05-22T06:46:23.779Z,1735
2017-05-22T06:47:24.102Z,1770
2017-05-22T06:48:23.807Z,1775
2017-05-22T06:49:24.152Z,1790
2017-05-22T06:50:23.835Z,1840
2017-05-22T06:51:23.862Z,1875
2017-05-22T06:52:23.267Z,1890
2017-05-22T06:53:24.211Z,1900
2017-05-22T06:54:23.916Z,1875
2017-05-22T06:55:24.255Z,1895
2017-05-22T06:56:24.241Z,1865
2017-05-22T06:57:24.275Z,1890
2017-05-22T06:58:24.279Z,1880
2017-05-22T06:59:24.005Z,1895
2017-05-22T07:00:23.708Z,1930
2017-05-22T07:01:24.332Z,1935
2017-05-22T07:02:24.059Z,1935
2017-05-22T07:03:24.066Z,1940
2017-05-22T07:04:24.394Z,1910
2017-05-22T07:05:24.404Z,1915
2017-05-22T07:06:24.427Z,1920
2017-05-22T07:07:24.436Z,1935
2017-05-22T07:08:24.468Z,1935
2017-05-22T07:09:24.465Z,1945
2017-05-22T07:10:24.506Z,1990
2017-05-22T07:11:24.506Z,2030
2017-05-22T07:12:24.528Z,2070
2017-05-22T07:13:24.310Z,2090
2017-05-22T07:14:24.567Z,2130
2017-05-22T07:15:24.567Z,2170
2017-05-22T07:17:24.603Z,2140
2017-05-22T07:18:24.637Z,2070
2017-05-22T07:19:24.661Z,2000
2017-05-22T07:20:24.646Z,2015
2017-05-22T07:21:24.682Z,2030
2017-05-22T07:22:24.396Z,2025
2017-05-22T07:23:24.104Z,2045
2017-05-22T07:24:24.424Z,2020
2017-05-22T07:25:24.759Z,2000
2017-05-22T07:26:24.776Z,2045
2017-05-22T07:27:24.806Z,2090
2017-05-22T07:28:24.496Z,2120
2017-05-22T07:29:24.816Z,1900
2017-05-22T07:30:24.836Z,2140
2017-05-22T07:31:24.868Z,2135
2017-05-22T07:32:24.879Z,2170
2017-05-22T07:33:24.903Z,2175
2017-05-22T07:34:24.904Z,2165
2017-05-22T07:35:24.923Z,2200
2017-05-22T07:36:24.953Z,2210
2017-05-22T07:37:24.964Z,2100
2017-05-22T07:38:24.977Z,1950
2017-05-22T07:39:24.994Z,1890
2017-05-22T07:40:25.022Z,1905
2017-05-22T07:41:25.097Z,1880
2017-05-22T07:42:25.055Z,1940
2017-05-22T07:43:25.061Z,1980
2017-05-22T07:44:24.786Z,2035
2017-05-22T07:45:24.498Z,2050
2017-05-22T07:46:25.135Z,2075
2017-05-22T07:47:25.155Z,2130
2017-05-22T07:48:25.155Z,2180
2017-05-22T07:49:25.186Z,2235
2017-05-22T07:50:24.908Z,2250
2017-05-22T07:51:25.199Z,2265
2017-05-22T07:52:25.229Z,2280
2017-05-22T07:53:25.247Z,2310
2017-05-22T07:54:25.279Z,2285
2017-05-22T07:55:24.981Z,2235
2017-05-22T07:56:25.291Z,2165
2017-05-22T07:57:25.319Z,2135
2017-05-22T07:58:25.341Z,2280
2017-05-22T07:59:25.055Z,2600
2017-05-22T08:00:25.391Z,2975
2017-05-22T08:01:25.385Z,3020
2017-05-22T08:02:25.408Z,3020
2017-05-22T08:03:25.473Z,2935
2017-05-22T08:04:25.440Z,2700
2017-05-22T08:05:25.459Z,2695
2017-05-22T08:06:25.475Z,2775
2017-05-22T08:07:25.495Z,2220
2017-05-22T08:08:25.511Z,2635
2017-05-22T08:09:25.535Z,1790
2017-05-22T08:10:25.558Z,1655
2017-05-22T08:11:25.567Z,1975
2017-05-22T08:12:25.567Z,2035
2017-05-22T08:13:25.610Z,2010
2017-05-22T08:14:25.612Z,1985
2017-05-22T08:15:25.642Z,1945
2017-05-22T08:16:25.663Z,1900
2017-05-22T08:17:25.077Z,1850
2017-05-22T08:18:25.685Z,1790
2017-05-22T08:19:25.713Z,1870
2017-05-22T08:20:25.712Z,1935
2017-05-22T08:21:25.734Z,2005
2017-05-22T08:22:25.751Z,1610
2017-05-22T08:23:25.776Z,2020
2017-05-22T08:24:25.872Z,1930
2017-05-22T08:25:25.799Z,1990
2017-05-22T08:26:25.824Z,2010
2017-05-22T08:27:25.837Z,2035
2017-05-22T08:28:25.872Z,2035
2017-05-22T08:29:25.860Z,2020
2017-05-22T08:30:25.883Z,2015
2017-05-22T08:31:25.915Z,565
2017-05-22T08:32:25.921Z,490
2017-05-22T08:33:25.924Z,480
2017-05-22T08:34:25.963Z,460
2017-05-22T08:35:25.959Z,485
2017-05-22T08:36:25.665Z,615
2017-05-22T08:37:25.968Z,1860
2017-05-22T08:38:25.986Z,780
2017-05-22T08:39:26.018Z,485
2017-05-22T08:40:26.019Z,1960
2017-05-22T08:41:26.032Z,2070
2017-05-22T08:42:26.049Z,840
2017-05-22T08:43:26.046Z,1880
2017-05-22T08:44:25.770Z,1355
2017-05-22T08:45:26.102Z,1980
2017-05-22T08:46:26.107Z,1760
2017-05-22T08:47:26.103Z,1000
2017-05-22T08:48:26.139Z,510
2017-05-22T08:49:26.114Z,500
2017-05-22T08:50:25.817Z,480
2017-05-22T08:51:26.132Z,495
2017-05-22T08:52:26.140Z,510
2017-05-22T08:53:26.166Z,510
2017-05-22T08:54:26.189Z,540
2017-05-22T08:55:26.164Z,570
2017-05-22T08:56:26.174Z,555
2017-05-22T08:57:26.208Z,555
2017-05-22T08:58:26.211Z,575
2017-05-22T08:59:26.192Z,530
2017-05-22T09:00:26.212Z,530
2017-05-22T09:01:26.212Z,520
2017-05-22T09:02:26.233Z,520
2017-05-22T09:03:26.246Z,485
2017-05-22T09:04:25.954Z,495
2017-05-22T09:05:26.243Z,510
2017-05-22T09:06:26.305Z,510
2017-05-22T09:07:26.245Z,500
2017-05-22T09:08:26.264Z,510
2017-05-22T09:09:26.281Z,520
2017-05-22T09:10:26.278Z,500
2017-05-22T09:11:26.289Z,470
2017-05-22T09:12:26.276Z,465
2017-05-22T09:13:26.283Z,480
2017-05-22T09:14:26.281Z,480
2017-05-22T09:15:25.983Z,495
2017-05-22T09:16:26.294Z,515
2017-05-22T09:17:26.302Z,520
2017-05-22T09:18:26.307Z,545
2017-05-22T09:19:26.318Z,565
2017-05-22T09:20:26.325Z,550
2017-05-22T09:21:26.306Z,545
2017-05-22T09:22:27.210Z,560
2017-05-22T09:23:26.303Z,575
2017-05-22T09:24:26.331Z,590
2017-05-22T09:25:26.318Z,605
2017-05-22T09:26:26.329Z,580
2017-05-22T09:27:26.400Z,570
2017-05-22T09:28:26.336Z,595
2017-05-22T09:29:26.339Z,590
2017-05-22T09:30:26.333Z,615
2017-05-22T09:31:26.333Z,610
2017-05-22T09:32:26.368Z,560
2017-05-22T09:33:26.360Z,555
2017-05-22T09:34:26.361Z,575
2017-05-22T09:35:26.392Z,550
2017-05-22T09:36:26.345Z,565
2017-05-22T09:37:26.060Z,580
2017-05-22T09:38:26.371Z,590
2017-05-22T09:39:26.079Z,610
2017-05-22T09:40:26.425Z,635
2017-05-22T09:41:26.385Z,630
2017-05-22T09:42:26.385Z,630
2017-05-22T09:43:26.398Z,625
2017-05-22T09:44:26.395Z,625
2017-05-22T09:45:26.075Z,650
2017-05-22T09:46:26.389Z,635
2017-05-22T09:47:26.391Z,635
2017-05-22T09:48:26.407Z,635
2017-05-22T09:49:26.415Z,640
2017-05-22T09:50:26.411Z,650
2017-05-22T09:51:26.407Z,640
2017-05-22T09:52:26.123Z,620
2017-05-22T09:53:26.400Z,575
2017-05-22T09:54:26.140Z,525
2017-05-22T09:55:26.105Z,515
2017-05-22T09:56:25.515Z,530
2017-05-22T09:57:26.413Z,535
2017-05-22T09:58:26.135Z,515
2017-05-22T09:59:26.437Z,535
2017-05-22T10:00:26.128Z,535
2017-05-22T10:01:26.138Z,545
2017-05-22T10:02:26.138Z,575
2017-05-22T10:03:26.450Z,595
2017-05-22T10:04:26.461Z,590
2017-05-22T10:05:26.448Z,575
2017-05-22T10:06:26.166Z,605
2017-05-22T10:07:26.167Z,630
2017-05-22T10:08:26.459Z,615
2017-05-22T10:09:26.486Z,565
2017-05-22T10:10:26.463Z,545
2017-05-22T10:11:26.477Z,530
2017-05-22T10:12:26.525Z,540
2017-05-22T10:13:26.477Z,545
2017-05-22T10:14:26.179Z,530
2017-05-22T10:15:26.183Z,525
2017-05-22T10:16:26.481Z,530
2017-05-22T10:17:26.503Z,540
2017-05-22T10:18:26.490Z,560
2017-05-22T10:19:26.500Z,570
2017-05-22T10:20:26.201Z,580
2017-05-22T10:21:26.210Z,595
2017-05-22T10:22:26.490Z,585
2017-05-22T10:23:26.524Z,555
2017-05-22T10:24:26.525Z,510
2017-05-22T10:25:26.219Z,495
2017-05-22T10:26:26.528Z,470
2017-05-22T10:27:26.207Z,465
2017-05-22T10:28:26.537Z,470
2017-05-22T10:29:26.563Z,475
2017-05-22T10:30:25.933Z,465
2017-05-22T10:31:26.240Z,470
2017-05-22T10:32:26.248Z,490
2017-05-22T10:33:26.557Z,465
2017-05-22T10:34:26.552Z,435
2017-05-22T10:35:26.766Z,410
2017-05-22T10:36:26.576Z,400
2017-05-22T10:37:26.246Z,410
2017-05-22T10:38:25.964Z,415
2017-05-22T10:39:26.584Z,415
2017-05-22T10:40:26.575Z,420
2017-05-22T10:41:26.287Z,435
2017-05-22T10:42:26.574Z,430
2017-05-22T10:43:26.590Z,435
2017-05-22T10:44:26.655Z,435
2017-05-22T10:45:26.584Z,440
2017-05-22T10:46:26.586Z,440
2017-05-22T10:47:26.609Z,445
2017-05-22T10:48:26.612Z,450
2017-05-22T10:49:26.595Z,435
2017-05-22T10:50:26.588Z,400
2017-05-22T10:51:26.620Z,385
2017-05-22T10:52:26.611Z,375
2017-05-22T10:53:26.620Z,370
2017-05-22T10:54:26.633Z,375
2017-05-22T10:55:26.613Z,360
2017-05-22T10:56:26.617Z,340
2017-05-22T10:57:26.324Z,335
2017-05-22T10:58:26.696Z,320
2017-05-22T10:59:26.337Z,315
2017-05-22T11:00:26.624Z,320
2017-05-22T11:01:26.329Z,335
2017-05-22T11:02:26.647Z,365
2017-05-22T11:03:26.629Z,370
2017-05-22T11:04:26.644Z,370
2017-05-22T11:05:26.344Z,370
2017-05-22T11:06:26.655Z,365
2017-05-22T11:07:25.759Z,365
2017-05-22T11:08:26.661Z,360
2017-05-22T11:09:26.667Z,365
2017-05-22T11:10:26.653Z,360
2017-05-22T11:11:26.652Z,355
2017-05-22T11:12:26.337Z,350
2017-05-22T11:13:26.675Z,345
2017-05-22T11:14:26.369Z,340
2017-05-22T11:15:26.675Z,345
2017-05-22T11:16:26.666Z,350
2017-05-22T11:17:26.674Z,345
2017-05-22T11:18:26.681Z,340
2017-05-22T11:19:26.650Z,345
2017-05-22T11:20:26.664Z,340
2017-05-22T11:21:27.063Z,330
2017-05-22T11:22:26.674Z,330
2017-05-22T11:23:26.695Z,330
2017-05-22T11:24:26.676Z,330
2017-05-22T11:25:26.387Z,325
2017-05-22T11:26:26.078Z,320
2017-05-22T11:27:26.684Z,320
2017-05-22T11:28:26.703Z,320
2017-05-22T11:29:26.741Z,325
2017-05-22T11:30:26.705Z,330
2017-05-22T11:31:26.685Z,335
2017-05-22T11:32:26.680Z,335
2017-05-22T11:33:26.465Z,335
2017-05-22T11:34:26.703Z,335
2017-05-22T11:35:26.713Z,350
2017-05-22T11:36:26.705Z,360
2017-05-22T11:37:26.694Z,375
2017-05-22T11:38:26.713Z,380
2017-05-22T11:39:26.719Z,390
2017-05-22T11:40:26.470Z,405
2017-05-22T11:41:26.408Z,410
2017-05-22T11:42:26.414Z,420
2017-05-22T11:43:26.713Z,435
2017-05-22T11:44:26.725Z,455
2017-05-22T11:45:26.728Z,435
2017-05-22T11:46:26.715Z,410
2017-05-22T11:47:26.728Z,410
2017-05-22T11:48:26.120Z,405
2017-05-22T11:49:26.733Z,370
2017-05-22T11:50:26.432Z,360
2017-05-22T11:51:26.750Z,360
2017-05-22T11:52:26.758Z,365
2017-05-22T11:53:26.752Z,370
2017-05-22T11:54:26.736Z,360
2017-05-22T11:55:26.805Z,340
2017-05-22T11:56:26.451Z,325
2017-05-22T11:57:26.450Z,320
2017-05-22T11:58:26.796Z,300
2017-05-22T11:59:26.746Z,300
2017-05-22T12:00:26.766Z,305
2017-05-22T12:01:27.019Z,325
2017-05-22T12:02:26.757Z,330
2017-05-22T12:03:26.773Z,335
2017-05-22T12:04:26.769Z,345
2017-05-22T12:05:26.768Z,345
2017-05-22T12:06:26.768Z,345
2017-05-22T12:07:26.460Z,355
2017-05-22T12:08:26.782Z,360
2017-05-22T12:09:26.788Z,360
2017-05-22T12:10:26.771Z,360
2017-05-22T12:11:26.778Z,355
2017-05-22T12:12:26.768Z,350
2017-05-22T12:13:26.185Z,355
2017-05-22T12:14:26.173Z,350
2017-05-22T12:15:26.468Z,350
2017-05-22T12:16:26.775Z,355
2017-05-22T12:17:26.802Z,365
2017-05-22T12:18:26.805Z,370
2017-05-22T12:19:26.807Z,370
2017-05-22T12:20:26.775Z,350
2017-05-22T12:21:26.189Z,330
2017-05-22T12:22:26.194Z,320
2017-05-22T12:23:26.794Z,310
2017-05-22T12:24:26.826Z,305
2017-05-22T12:25:26.809Z,310
2017-05-22T12:26:26.527Z,315
2017-05-22T12:27:26.796Z,315
2017-05-22T12:28:26.221Z,320
2017-05-22T12:29:26.886Z,340
2017-05-22T12:30:26.820Z,330
2017-05-22T12:31:26.826Z,315
2017-05-22T12:32:26.811Z,315
2017-05-22T12:33:26.825Z,325
2017-05-22T12:34:26.820Z,335
2017-05-22T12:35:26.823Z,340
2017-05-22T12:36:26.519Z,345
2017-05-22T12:37:26.829Z,345
2017-05-22T12:38:26.838Z,335
2017-05-22T12:39:26.532Z,320
2017-05-22T12:40:26.845Z,310
2017-05-22T12:41:26.585Z,295
2017-05-22T12:42:26.543Z,305
2017-05-22T12:43:26.852Z,300
2017-05-22T12:44:26.855Z,300
2017-05-22T12:45:26.847Z,305
2017-05-22T12:46:26.544Z,320
2017-05-22T12:47:26.845Z,320
2017-05-22T12:48:26.845Z,320
2017-05-22T12:49:26.850Z,335
2017-05-22T12:50:26.834Z,335
2017-05-22T12:51:26.848Z,330
2017-05-22T12:52:26.552Z,325
2017-05-22T12:53:26.851Z,325
2017-05-22T12:54:26.852Z,325
2017-05-22T12:55:26.878Z,325
2017-05-22T12:56:26.864Z,325
2017-05-22T12:57:26.553Z,325
2017-05-22T12:58:26.550Z,325
2017-05-22T12:59:26.863Z,320
2017-05-22T13:00:26.868Z,320
2017-05-22T13:01:26.569Z,315
2017-05-22T13:02:26.874Z,320
2017-05-22T13:03:26.564Z,330
2017-05-22T13:04:26.874Z,345
2017-05-22T13:05:26.861Z,355
2017-05-22T13:06:26.869Z,350
2017-05-22T13:07:26.621Z,345
2017-05-22T13:08:26.877Z,325
2017-05-22T13:09:26.573Z,310
2017-05-22T13:10:26.882Z,305
2017-05-22T13:11:26.875Z,285
2017-05-22T13:12:26.887Z,280
2017-05-22T13:13:26.873Z,270
2017-05-22T13:14:26.891Z,270
2017-05-22T13:15:26.570Z,270
2017-05-22T13:16:26.946Z,270
2017-05-22T13:17:26.870Z,270
2017-05-22T13:18:26.584Z,265
2017-05-22T13:19:26.875Z,265
2017-05-22T13:20:26.880Z,260
2017-05-22T13:21:26.873Z,255
2017-05-22T13:22:26.595Z,250
2017-05-22T13:23:26.889Z,250
2017-05-22T13:24:26.659Z,255
2017-05-22T13:25:26.885Z,255
2017-05-22T13:26:26.603Z,255
2017-05-22T13:27:26.315Z,255
2017-05-22T13:28:26.901Z,255
2017-05-22T13:29:26.597Z,255
2017-05-22T13:30:26.901Z,255
2017-05-22T13:31:26.291Z,250
2017-05-22T13:32:26.604Z,250
2017-05-22T13:33:26.296Z,245
2017-05-22T13:34:26.916Z,240
2017-05-22T13:35:26.633Z,245
2017-05-22T13:36:26.306Z,255
2017-05-22T13:37:26.921Z,265
2017-05-22T13:38:26.923Z,260
2017-05-22T13:39:26.932Z,265
2017-05-22T13:40:26.907Z,265
2017-05-22T13:41:26.627Z,270
2017-05-22T13:42:26.621Z,280
2017-05-22T13:43:26.916Z,290
2017-05-22T13:44:26.927Z,290
2017-05-22T13:45:26.928Z,285
2017-05-22T13:46:26.933Z,280
2017-05-22T13:47:26.930Z,280
2017-05-22T13:48:26.930Z,295
2017-05-22T13:49:26.952Z,300
2017-05-22T13:50:26.646Z,305
2017-05-22T13:51:26.927Z,295
2017-05-22T13:52:26.940Z,270
2017-05-22T13:53:26.952Z,250
2017-05-22T13:54:26.945Z,245